createdAt,value
2023-01-17T04:48:07.390Z,100.00
2023-01-17T04:51:10.488Z,100.00
2023-01-17T04:54:12.876Z,100.00
2023-01-17T04:57:16.706Z,100.00
2023-01-17T05:00:19.618Z,100.00
2023-01-17T05:03:23.201Z,100.00
2023-01-17T05:06:25.610Z,100.00
2023-01-17T05:09:28.298Z,100.00
2023-01-17T05:12:30.819Z,100.00
2023-01-17T05:15:33.563Z,100.00
2023-01-17T05:18:36.047Z,100.00
2023-01-17T05:21:38.747Z,100.00
2023-01-17T05:24:44.653Z,100.00
2023-01-17T05:27:47.322Z,100.00
2023-01-17T05:30:49.924Z,100.00
2023-01-17T05:33:52.513Z,100.00
2023-01-17T05:36:55.094Z,100.00
2023-01-17T05:39:57.780Z,100.00
2023-01-17T05:43:02.902Z,100.00
2023-01-17T05:46:05.774Z,100.00
2023-01-17T05:49:08.768Z,100.00
2023-01-17T05:52:11.810Z,100.00
2023-01-17T05:55:15.506Z,100.00
2023-01-17T05:58:21.420Z,100.00
2023-01-17T06:01:24.687Z,100.00
2023-01-17T06:04:27.346Z,100.00
2023-01-17T06:07:29.734Z,100.00
2023-01-17T06:10:32.730Z,100.00
2023-01-17T06:13:35.084Z,100.00
2023-01-17T06:16:37.791Z,100.00
2023-01-17T06:19:40.161Z,100.00
2023-01-17T06:22:42.767Z,100.00
2023-01-17T06:25:46.811Z,100.00
2023-01-17T06:28:49.887Z,100.00
2023-01-17T06:31:52.477Z,100.00
2023-01-17T06:34:55.441Z,100.00
2023-01-17T06:37:59.751Z,100.00
2023-01-17T06:41:05.930Z,100.00
2023-01-17T06:44:09.869Z,100.00
2023-01-17T06:47:12.548Z,100.00
2023-01-17T06:50:15.070Z,100.00
2023-01-17T06:53:18.031Z,100.00
2023-01-17T06:56:21.098Z,100.00
2023-01-17T06:59:24.269Z,100.00
2023-01-17T07:02:27.011Z,100.00
2023-01-17T07:05:29.966Z,100.00
2023-01-17T07:08:32.821Z,100.00
2023-01-17T07:11:35.653Z,100.00
2023-01-17T07:14:38.479Z,100.00
2023-01-17T07:17:41.676Z,100.00
2023-01-17T07:20:44.401Z,100.00
2023-01-17T07:23:48.151Z,100.00
2023-01-17T07:26:51.601Z,100.00
2023-01-17T07:29:55.421Z,100.00
2023-01-17T07:32:58.114Z,100.00
2023-01-17T07:36:09.366Z,100.00
2023-01-17T07:39:12.369Z,100.00
2023-01-17T07:42:15.381Z,100.00
2023-01-17T07:45:18.866Z,100.00
2023-01-17T07:48:23.570Z,100.00
2023-01-17T07:51:25.933Z,100.00
2023-01-17T07:54:28.640Z,100.00
2023-01-17T07:57:32.524Z,100.00
2023-01-17T08:00:35.277Z,100.00
2023-01-17T08:03:42.092Z,100.00
2023-01-17T08:06:50.698Z,100.00
2023-01-17T08:09:54.732Z,100.00
2023-01-17T08:12:57.262Z,100.00
2023-01-17T08:16:02.399Z,100.00
2023-01-17T08:19:04.916Z,100.00
2023-01-17T08:22:09.517Z,100.00
2023-01-17T08:25:12.650Z,100.00
2023-01-17T08:28:15.952Z,100.00
2023-01-17T08:31:19.873Z,100.00
2023-01-17T08:34:24.427Z,100.00
2023-01-17T08:37:26.946Z,100.00
2023-01-17T08:40:29.700Z,100.00
2023-01-17T08:43:32.536Z,100.00
2023-01-17T08:46:38.244Z,100.00
2023-01-17T08:49:40.974Z,100.00
2023-01-17T08:52:43.797Z,100.00
2023-01-17T08:55:46.557Z,100.00
2023-01-17T08:58:49.434Z,100.00
2023-01-17T09:01:52.542Z,100.00
2023-01-17T09:04:55.314Z,100.00
2023-01-17T09:07:57.660Z,100.00
2023-01-17T09:11:08.811Z,100.00
2023-01-17T09:14:13.125Z,100.00
2023-01-17T09:17:16.002Z,100.00
2023-01-17T09:20:18.843Z,100.00
2023-01-17T09:23:30.037Z,100.00
2023-01-17T09:26:32.404Z,100.00
2023-01-17T09:29:35.072Z,100.00
2023-01-17T09:32:37.696Z,100.00
2023-01-17T09:35:40.526Z,100.00
2023-01-17T09:38:43.066Z,100.00
2023-01-17T09:41:54.617Z,100.00
2023-01-17T09:44:57.853Z,100.00
2023-01-17T09:48:07.281Z,100.00
2023-01-17T09:51:18.823Z,100.00
2023-01-17T09:54:32.440Z,100.00
2023-01-17T09:57:54.073Z,100.00
2023-01-17T10:01:15.682Z,100.00
2023-01-17T10:04:27.600Z,100.00
2023-01-17T10:07:51.833Z,100.00
2023-01-17T10:11:15.592Z,100.00
2023-01-17T10:14:35.528Z,100.00
2023-01-17T10:18:19.136Z,100.00
2023-01-17T10:21:37.449Z,100.00
2023-01-17T10:24:42.978Z,100.00
2023-01-17T10:27:58.950Z,100.00
2023-01-17T10:31:10.371Z,100.00
2023-01-17T10:34:20.922Z,100.00
2023-01-17T10:37:43.447Z,100.00
2023-01-17T10:40:55.299Z,100.00
2023-01-17T10:44:15.628Z,100.00
2023-01-17T10:47:24.640Z,100.00
2023-01-17T10:50:29.097Z,100.00
2023-01-17T10:54:05.687Z,100.00
2023-01-17T10:57:18.638Z,100.00
2023-01-17T11:00:45.426Z,100.00
2023-01-17T11:03:51.047Z,100.00
2023-01-17T11:07:13.264Z,100.00
2023-01-17T11:10:39.819Z,100.00
2023-01-17T11:13:42.455Z,100.00
2023-01-17T11:16:45.250Z,100.00
2023-01-17T11:19:51.248Z,100.00
2023-01-17T11:23:03.007Z,100.00
2023-01-17T11:26:07.654Z,100.00
2023-01-17T11:29:36.826Z,100.00
2023-01-17T11:32:52.746Z,100.00
2023-01-17T11:35:56.493Z,100.00
2023-01-17T11:39:21.900Z,100.00
2023-01-17T11:43:00.012Z,99.21
2023-01-17T11:46:17.962Z,97.70
2023-01-17T11:49:25.409Z,99.50
2023-01-17T11:52:37.487Z,99.65
2023-01-17T11:55:40.743Z,95.44
2023-01-17T11:58:45.896Z,95.65
2023-01-17T12:02:01.642Z,92.94
2023-01-17T12:05:18.369Z,93.30
2023-01-17T12:08:57.677Z,92.08
2023-01-17T12:12:34.667Z,92.92
2023-01-17T12:15:56.001Z,88.03
2023-01-17T12:19:22.773Z,84.00
2023-01-17T12:22:46.573Z,82.63
2023-01-17T12:25:55.861Z,79.29
2023-01-17T12:29:07.449Z,77.11
2023-01-17T12:32:32.131Z,75.93
2023-01-17T12:35:53.388Z,76.94
2023-01-17T12:38:58.574Z,84.63
2023-01-17T12:42:18.701Z,84.08
2023-01-17T12:45:28.486Z,83.26
2023-01-17T12:48:36.587Z,82.81
2023-01-17T12:51:43.532Z,83.30
2023-01-17T12:54:53.569Z,81.31
2023-01-17T12:58:00.364Z,79.39
2023-01-17T13:01:16.787Z,77.73
2023-01-17T13:04:34.263Z,77.56
2023-01-17T13:07:51.488Z,79.45
2023-01-17T13:11:33.499Z,81.32
2023-01-17T13:14:36.019Z,85.85
2023-01-17T13:17:48.167Z,84.77
2023-01-17T13:21:10.577Z,87.11
2023-01-17T13:24:31.083Z,87.14
2023-01-17T13:27:52.982Z,88.97
2023-01-17T13:31:12.675Z,91.41
2023-01-17T13:34:38.443Z,91.39
2023-01-17T13:37:56.717Z,93.14
2023-01-17T13:41:34.003Z,97.20
2023-01-17T13:44:37.425Z,97.77
2023-01-17T13:47:41.702Z,99.73
2023-01-17T13:50:47.335Z,98.67
2023-01-17T13:53:49.775Z,97.98
2023-01-17T13:57:43.242Z,99.16
2023-01-17T14:00:45.667Z,97.88
2023-01-17T14:03:51.944Z,97.01
2023-01-17T14:06:58.003Z,97.14
2023-01-17T14:10:01.170Z,97.62
2023-01-17T14:13:06.509Z,96.94
2023-01-17T14:16:27.504Z,100.00
2023-01-17T14:19:36.346Z,100.00
2023-01-17T14:23:01.011Z,100.00
2023-01-17T14:26:32.737Z,100.00
2023-01-17T14:29:57.023Z,100.00
2023-01-17T14:33:03.086Z,100.00
2023-01-17T14:36:08.674Z,100.00
2023-01-17T14:39:22.436Z,100.00
2023-01-17T14:42:27.895Z,100.00
2023-01-17T14:45:33.419Z,100.00
2023-01-17T14:48:40.119Z,100.00
2023-01-17T14:51:42.964Z,100.00
2023-01-17T14:54:50.989Z,100.00
2023-01-17T14:57:57.284Z,100.00
2023-01-17T15:01:14.826Z,100.00
2023-01-17T15:04:30.116Z,100.00
2023-01-17T15:07:32.882Z,100.00
2023-01-17T15:10:35.947Z,100.00
2023-01-17T15:13:45.236Z,100.00
2023-01-17T15:16:47.963Z,100.00
2023-01-17T15:19:59.591Z,100.00
2023-01-17T15:23:03.004Z,100.00
2023-01-17T15:26:10.028Z,100.00
2023-01-17T15:29:22.601Z,100.00
2023-01-17T15:32:31.696Z,100.00
2023-01-17T15:35:34.280Z,100.00
2023-01-17T15:38:40.650Z,100.00
2023-01-17T15:41:43.310Z,100.00
2023-01-17T15:44:48.863Z,100.00
2023-01-17T15:47:51.754Z,100.00
2023-01-17T15:50:58.905Z,100.00
2023-01-17T15:54:24.873Z,100.00
2023-01-17T15:57:37.354Z,99.98
2023-01-17T16:00:41.838Z,100.00
2023-01-17T16:03:54.676Z,100.00
2023-01-17T16:07:19.819Z,100.00
2023-01-17T16:10:25.556Z,100.00
2023-01-17T16:13:34.040Z,100.00
2023-01-17T16:16:37.441Z,100.00
2023-01-17T16:19:40.071Z,98.46
2023-01-17T16:22:43.916Z,99.79
2023-01-17T16:25:48.189Z,98.56
2023-01-17T16:28:51.761Z,100.00
2023-01-17T16:31:55.141Z,99.87
2023-01-17T16:34:57.994Z,100.00
2023-01-17T16:38:02.318Z,100.00
2023-01-17T16:41:05.623Z,100.00
2023-01-17T16:44:08.190Z,100.00
2023-01-17T16:47:10.896Z,100.00
